sensor_id;sensor_type;location;lat;lon;timestamp;temperature;humidity
5196;DHT22;2617;51.006;12.436;2023-05-07T00:03:35;9.70;99.90
5196;DHT22;2617;51.006;12.436;2023-05-07T00:08:39;9.70;99.90
5196;DHT22;2617;51.006;12.436;2023-05-07T00:13:41;9.70;99.90
5196;DHT22;2617;51.006;12.436;2023-05-07T00:18:44;9.70;99.90
5196;DHT22;2617;51.006;12.436;2023-05-07T00:23:46;9.70;99.90
5196;DHT22;2617;51.006;12.436;2023-05-07T00:28:48;9.60;99.90
5196;DHT22;2617;51.006;12.436;2023-05-07T00:33:52;9.50;99.90
5196;DHT22;2617;51.006;12.436;2023-05-07T00:38:56;9.50;99.90
5196;DHT22;2617;51.006;12.436;2023-05-07T00:43:58;9.40;99.90
5196;DHT22;2617;51.006;12.436;2023-05-07T00:49:00;9.40;99.90
5196;DHT22;2617;51.006;12.436;2023-05-07T00:54:03;9.30;99.90
5196;DHT22;2617;51.006;12.436;2023-05-07T00:59:05;9.20;99.90
5196;DHT22;2617;51.006;12.436;2023-05-07T01:04:08;9.00;99.90
5196;DHT22;2617;51.006;12.436;2023-05-07T01:09:11;9.00;99.90
5196;DHT22;2617;51.006;12.436;2023-05-07T01:14:13;8.90;99.90
5196;DHT22;2617;51.006;12.436;2023-05-07T01:19:16;8.80;99.90
5196;DHT22;2617;51.006;12.436;2023-05-07T01:24:18;8.80;99.90
5196;DHT22;2617;51.006;12.436;2023-05-07T01:29:21;8.70;99.90
5196;DHT22;2617;51.006;12.436;2023-05-07T01:34:24;8.70;99.90
5196;DHT22;2617;51.006;12.436;2023-05-07T01:39:27;8.70;99.90
5196;DHT22;2617;51.006;12.436;2023-05-07T01:44:29;8.60;99.90
5196;DHT22;2617;51.006;12.436;2023-05-07T01:49:32;8.60;99.90
5196;DHT22;2617;51.006;12.436;2023-05-07T01:54:34;8.60;99.90
5196;DHT22;2617;51.006;12.436;2023-05-07T01:59:37;8.60;99.90
5196;DHT22;2617;51.006;12.436;2023-05-07T02:04:40;8.60;99.90
5196;DHT22;2617;51.006;12.436;2023-05-07T02:09:43;8.70;99.90
5196;DHT22;2617;51.006;12.436;2023-05-07T02:14:45;8.60;99.90
5196;DHT22;2617;51.006;12.436;2023-05-07T02:19:48;8.60;99.90
5196;DHT22;2617;51.006;12.436;2023-05-07T02:24:50;8.50;99.90
5196;DHT22;2617;51.006;12.436;2023-05-07T02:29:52;8.50;99.90
5196;DHT22;2617;51.006;12.436;2023-05-07T02:34:55;8.40;99.90
5196;DHT22;2617;51.006;12.436;2023-05-07T02:39:58;8.50;99.90
5196;DHT22;2617;51.006;12.436;2023-05-07T02:45:01;8.50;99.90
5196;DHT22;2617;51.006;12.436;2023-05-07T02:50:04;8.50;99.90
5196;DHT22;2617;51.006;12.436;2023-05-07T02:55:07;8.50;99.90
5196;DHT22;2617;51.006;12.436;2023-05-07T03:00:12;8.50;99.90
5196;DHT22;2617;51.006;12.436;2023-05-07T03:05:14;8.50;99.90
5196;DHT22;2617;51.006;12.436;2023-05-07T03:10:17;8.50;99.90
5196;DHT22;2617;51.006;12.436;2023-05-07T03:15:19;8.50;99.90
5196;DHT22;2617;51.006;12.436;2023-05-07T03:20:22;8.40;99.90
5196;DHT22;2617;51.006;12.436;2023-05-07T03:25:24;8.40;99.90
5196;DHT22;2617;51.006;12.436;2023-05-07T03:30:27;8.40;99.90
5196;DHT22;2617;51.006;12.436;2023-05-07T03:35:30;8.40;99.90
5196;DHT22;2617;51.006;12.436;2023-05-07T03:40:33;8.40;99.90
5196;DHT22;2617;51.006;12.436;2023-05-07T03:45:35;8.40;99.90
5196;DHT22;2617;51.006;12.436;2023-05-07T03:50:38;8.40;99.90
5196;DHT22;2617;51.006;12.436;2023-05-07T03:55:41;8.40;99.90
5196;DHT22;2617;51.006;12.436;2023-05-07T04:00:43;8.40;99.90
5196;DHT22;2617;51.006;12.436;2023-05-07T04:05:47;8.40;99.90
5196;DHT22;2617;51.006;12.436;2023-05-07T04:10:54;8.40;99.90
5196;DHT22;2617;51.006;12.436;2023-05-07T04:15:53;8.40;99.90
5196;DHT22;2617;51.006;12.436;2023-05-07T04:20:55;8.40;99.90
5196;DHT22;2617;51.006;12.436;2023-05-07T04:25:58;8.40;99.90
5196;DHT22;2617;51.006;12.436;2023-05-07T04:31:01;8.50;99.90
5196;DHT22;2617;51.006;12.436;2023-05-07T04:36:05;8.50;99.90
5196;DHT22;2617;51.006;12.436;2023-05-07T04:41:08;8.50;99.90
5196;DHT22;2617;51.006;12.436;2023-05-07T04:46:10;8.50;99.90
5196;DHT22;2617;51.006;12.436;2023-05-07T04:51:12;8.50;99.90
5196;DHT22;2617;51.006;12.436;2023-05-07T04:56:14;8.60;99.90
5196;DHT22;2617;51.006;12.436;2023-05-07T05:01:17;8.60;99.90
5196;DHT22;2617;51.006;12.436;2023-05-07T05:06:19;8.50;99.90
5196;DHT22;2617;51.006;12.436;2023-05-07T05:11:22;8.50;99.90
5196;DHT22;2617;51.006;12.436;2023-05-07T05:16:24;8.40;99.90
5196;DHT22;2617;51.006;12.436;2023-05-07T05:21:26;8.60;99.90
5196;DHT22;2617;51.006;12.436;2023-05-07T05:26:30;8.70;99.90
5196;DHT22;2617;51.006;12.436;2023-05-07T05:31:32;8.70;99.90
5196;DHT22;2617;51.006;12.436;2023-05-07T05:36:35;8.80;99.90
5196;DHT22;2617;51.006;12.436;2023-05-07T05:41:37;8.90;99.90
5196;DHT22;2617;51.006;12.436;2023-05-07T05:46:40;8.90;99.90
5196;DHT22;2617;51.006;12.436;2023-05-07T05:51:43;8.90;99.90
5196;DHT22;2617;51.006;12.436;2023-05-07T05:56:45;8.90;99.90
5196;DHT22;2617;51.006;12.436;2023-05-07T06:01:47;8.90;99.90
5196;DHT22;2617;51.006;12.436;2023-05-07T06:06:50;9.00;99.90
5196;DHT22;2617;51.006;12.436;2023-05-07T06:11:52;9.10;99.90
5196;DHT22;2617;51.006;12.436;2023-05-07T06:16:56;9.30;99.90
5196;DHT22;2617;51.006;12.436;2023-05-07T06:21:58;9.30;99.90
5196;DHT22;2617;51.006;12.436;2023-05-07T06:27:01;9.40;99.90
5196;DHT22;2617;51.006;12.436;2023-05-07T06:32:10;9.50;99.90
5196;DHT22;2617;51.006;12.436;2023-05-07T06:37:12;9.30;99.90
5196;DHT22;2617;51.006;12.436;2023-05-07T06:42:15;9.30;99.90
5196;DHT22;2617;51.006;12.436;2023-05-07T06:47:18;9.30;99.90
5196;DHT22;2617;51.006;12.436;2023-05-07T06:52:20;9.30;99.90
5196;DHT22;2617;51.006;12.436;2023-05-07T06:57:23;9.50;99.90
5196;DHT22;2617;51.006;12.436;2023-05-07T07:02:26;9.60;99.90
5196;DHT22;2617;51.006;12.436;2023-05-07T07:07:29;9.60;99.90
5196;DHT22;2617;51.006;12.436;2023-05-07T07:12:32;9.70;99.90
5196;DHT22;2617;51.006;12.436;2023-05-07T07:17:34;9.60;99.90
5196;DHT22;2617;51.006;12.436;2023-05-07T07:22:37;9.50;99.90
5196;DHT22;2617;51.006;12.436;2023-05-07T07:27:40;9.50;99.90
5196;DHT22;2617;51.006;12.436;2023-05-07T07:32:42;9.50;99.90
5196;DHT22;2617;51.006;12.436;2023-05-07T07:37:45;9.50;99.90
5196;DHT22;2617;51.006;12.436;2023-05-07T07:42:47;9.60;99.90
5196;DHT22;2617;51.006;12.436;2023-05-07T07:47:50;9.60;99.90
5196;DHT22;2617;51.006;12.436;2023-05-07T07:52:52;9.70;99.90
5196;DHT22;2617;51.006;12.436;2023-05-07T07:57:54;9.90;99.90
5196;DHT22;2617;51.006;12.436;2023-05-07T08:02:57;10.10;99.90
5196;DHT22;2617;51.006;12.436;2023-05-07T08:07:59;10.20;99.90
5196;DHT22;2617;51.006;12.436;2023-05-07T08:13:02;10.30;99.90
5196;DHT22;2617;51.006;12.436;2023-05-07T08:18:05;10.40;99.90
5196;DHT22;2617;51.006;12.436;2023-05-07T08:23:07;10.40;99.90
5196;DHT22;2617;51.006;12.436;2023-05-07T08:28:10;10.50;99.90
5196;DHT22;2617;51.006;12.436;2023-05-07T08:33:12;10.50;99.90
5196;DHT22;2617;51.006;12.436;2023-05-07T08:38:14;10.60;99.90
5196;DHT22;2617;51.006;12.436;2023-05-07T08:43:17;10.50;99.90
5196;DHT22;2617;51.006;12.436;2023-05-07T08:48:19;10.80;99.90
5196;DHT22;2617;51.006;12.436;2023-05-07T08:53:22;10.90;99.90
5196;DHT22;2617;51.006;12.436;2023-05-07T08:58:24;10.60;99.90
5196;DHT22;2617;51.006;12.436;2023-05-07T09:03:27;10.50;99.90
5196;DHT22;2617;51.006;12.436;2023-05-07T09:08:29;10.40;99.90
5196;DHT22;2617;51.006;12.436;2023-05-07T09:13:32;10.50;99.90
5196;DHT22;2617;51.006;12.436;2023-05-07T09:18:34;10.40;99.90
5196;DHT22;2617;51.006;12.436;2023-05-07T09:23:37;10.40;99.90
5196;DHT22;2617;51.006;12.436;2023-05-07T09:28:40;10.40;99.90
5196;DHT22;2617;51.006;12.436;2023-05-07T09:33:43;10.70;99.90
5196;DHT22;2617;51.006;12.436;2023-05-07T09:38:46;11.40;99.90
5196;DHT22;2617;51.006;12.436;2023-05-07T09:43:52;11.40;99.90
5196;DHT22;2617;51.006;12.436;2023-05-07T09:48:52;11.70;99.90
5196;DHT22;2617;51.006;12.436;2023-05-07T09:53:56;11.70;99.90
5196;DHT22;2617;51.006;12.436;2023-05-07T09:58:59;11.90;99.90
5196;DHT22;2617;51.006;12.436;2023-05-07T10:04:03;12.10;99.90
5196;DHT22;2617;51.006;12.436;2023-05-07T10:09:06;11.70;99.90
5196;DHT22;2617;51.006;12.436;2023-05-07T10:14:08;11.70;99.90
5196;DHT22;2617;51.006;12.436;2023-05-07T10:19:11;12.10;99.90
5196;DHT22;2617;51.006;12.436;2023-05-07T10:24:19;12.10;99.90
5196;DHT22;2617;51.006;12.436;2023-05-07T10:34:54;12.00;99.90
5196;DHT22;2617;51.006;12.436;2023-05-07T10:39:57;11.70;99.90
5196;DHT22;2617;51.006;12.436;2023-05-07T10:45:11;11.50;99.90
5196;DHT22;2617;51.006;12.436;2023-05-07T10:50:20;11.70;99.90
5196;DHT22;2617;51.006;12.436;2023-05-07T10:55:22;12.00;99.90
5196;DHT22;2617;51.006;12.436;2023-05-07T11:00:42;12.00;99.90
5196;DHT22;2617;51.006;12.436;2023-05-07T11:05:44;11.50;99.90
5196;DHT22;2617;51.006;12.436;2023-05-07T11:10:51;11.60;99.90
5196;DHT22;2617;51.006;12.436;2023-05-07T11:15:54;11.70;99.90
5196;DHT22;2617;51.006;12.436;2023-05-07T11:20:57;12.00;99.90
5196;DHT22;2617;51.006;12.436;2023-05-07T11:26:04;12.00;99.90
5196;DHT22;2617;51.006;12.436;2023-05-07T11:31:07;11.90;99.90
5196;DHT22;2617;51.006;12.436;2023-05-07T11:36:10;11.90;99.90
5196;DHT22;2617;51.006;12.436;2023-05-07T11:41:12;12.10;99.90
5196;DHT22;2617;51.006;12.436;2023-05-07T11:46:14;12.10;99.90
5196;DHT22;2617;51.006;12.436;2023-05-07T11:51:20;12.20;99.90
5196;DHT22;2617;51.006;12.436;2023-05-07T11:56:22;12.20;99.90
5196;DHT22;2617;51.006;12.436;2023-05-07T12:01:24;12.20;99.90
5196;DHT22;2617;51.006;12.436;2023-05-07T12:06:27;12.70;99.90
5196;DHT22;2617;51.006;12.436;2023-05-07T12:11:29;12.80;99.90
5196;DHT22;2617;51.006;12.436;2023-05-07T12:16:32;12.90;99.90
5196;DHT22;2617;51.006;12.436;2023-05-07T12:21:35;13.00;99.90
5196;DHT22;2617;51.006;12.436;2023-05-07T12:26:38;13.10;99.90
5196;DHT22;2617;51.006;12.436;2023-05-07T12:31:43;12.90;99.90
5196;DHT22;2617;51.006;12.436;2023-05-07T12:36:44;12.90;99.90
5196;DHT22;2617;51.006;12.436;2023-05-07T12:41:55;12.80;99.90
5196;DHT22;2617;51.006;12.436;2023-05-07T12:46:57;13.30;99.90
5196;DHT22;2617;51.006;12.436;2023-05-07T12:52:00;13.30;99.90
5196;DHT22;2617;51.006;12.436;2023-05-07T12:57:05;12.70;99.90
5196;DHT22;2617;51.006;12.436;2023-05-07T13:02:06;12.30;99.90
5196;DHT22;2617;51.006;12.436;2023-05-07T13:07:09;12.40;99.90
5196;DHT22;2617;51.006;12.436;2023-05-07T13:12:11;12.60;99.90
5196;DHT22;2617;51.006;12.436;2023-05-07T13:17:14;12.60;99.90
5196;DHT22;2617;51.006;12.436;2023-05-07T13:22:16;12.50;99.90
5196;DHT22;2617;51.006;12.436;2023-05-07T13:27:19;12.40;99.90
5196;DHT22;2617;51.006;12.436;2023-05-07T13:32:21;12.60;99.90
5196;DHT22;2617;51.006;12.436;2023-05-07T13:37:23;12.80;99.90
5196;DHT22;2617;51.006;12.436;2023-05-07T13:42:26;12.90;99.90
5196;DHT22;2617;51.006;12.436;2023-05-07T13:47:28;12.70;99.90
5196;DHT22;2617;51.006;12.436;2023-05-07T13:52:31;12.90;99.90
5196;DHT22;2617;51.006;12.436;2023-05-07T13:57:33;13.30;99.90
5196;DHT22;2617;51.006;12.436;2023-05-07T14:02:35;13.20;99.90
5196;DHT22;2617;51.006;12.436;2023-05-07T14:07:38;13.60;99.90
5196;DHT22;2617;51.006;12.436;2023-05-07T14:12:40;13.30;99.90
5196;DHT22;2617;51.006;12.436;2023-05-07T14:17:43;13.50;99.90
5196;DHT22;2617;51.006;12.436;2023-05-07T14:22:46;13.50;99.90
5196;DHT22;2617;51.006;12.436;2023-05-07T14:27:48;13.20;99.90
5196;DHT22;2617;51.006;12.436;2023-05-07T14:32:51;13.40;99.90
5196;DHT22;2617;51.006;12.436;2023-05-07T14:37:53;13.70;99.90
5196;DHT22;2617;51.006;12.436;2023-05-07T14:42:56;14.00;99.90
5196;DHT22;2617;51.006;12.436;2023-05-07T14:47:58;14.40;99.90
5196;DHT22;2617;51.006;12.436;2023-05-07T14:53:01;14.50;99.90
5196;DHT22;2617;51.006;12.436;2023-05-07T14:58:03;14.30;99.90
5196;DHT22;2617;51.006;12.436;2023-05-07T15:03:08;14.20;99.90
5196;DHT22;2617;51.006;12.436;2023-05-07T15:08:09;13.80;99.90
5196;DHT22;2617;51.006;12.436;2023-05-07T15:13:11;13.70;99.90
5196;DHT22;2617;51.006;12.436;2023-05-07T15:18:14;14.00;99.90
5196;DHT22;2617;51.006;12.436;2023-05-07T15:23:17;13.90;99.90
5196;DHT22;2617;51.006;12.436;2023-05-07T15:28:19;13.80;99.90
5196;DHT22;2617;51.006;12.436;2023-05-07T15:33:23;13.90;99.90
5196;DHT22;2617;51.006;12.436;2023-05-07T15:38:26;13.90;99.90
5196;DHT22;2617;51.006;12.436;2023-05-07T15:43:29;13.80;99.90
5196;DHT22;2617;51.006;12.436;2023-05-07T15:48:31;13.80;99.90
5196;DHT22;2617;51.006;12.436;2023-05-07T15:53:34;13.90;99.90
5196;DHT22;2617;51.006;12.436;2023-05-07T15:58:37;14.00;99.90
5196;DHT22;2617;51.006;12.436;2023-05-07T16:03:39;13.90;99.90
5196;DHT22;2617;51.006;12.436;2023-05-07T16:08:42;14.00;99.90
5196;DHT22;2617;51.006;12.436;2023-05-07T16:13:45;14.00;99.90
5196;DHT22;2617;51.006;12.436;2023-05-07T16:18:47;14.10;99.90
5196;DHT22;2617;51.006;12.436;2023-05-07T16:23:49;14.00;99.90
5196;DHT22;2617;51.006;12.436;2023-05-07T16:28:52;13.90;99.90
5196;DHT22;2617;51.006;12.436;2023-05-07T16:33:55;13.60;99.90
5196;DHT22;2617;51.006;12.436;2023-05-07T16:38:57;13.50;99.90
5196;DHT22;2617;51.006;12.436;2023-05-07T16:44:00;13.40;99.90
5196;DHT22;2617;51.006;12.436;2023-05-07T16:49:03;13.20;99.90
5196;DHT22;2617;51.006;12.436;2023-05-07T16:54:06;13.10;99.90
5196;DHT22;2617;51.006;12.436;2023-05-07T16:59:08;13.10;99.90
5196;DHT22;2617;51.006;12.436;2023-05-07T17:04:11;13.10;99.90
5196;DHT22;2617;51.006;12.436;2023-05-07T17:09:13;12.90;99.90
5196;DHT22;2617;51.006;12.436;2023-05-07T17:14:15;12.70;99.90
5196;DHT22;2617;51.006;12.436;2023-05-07T17:19:18;12.60;99.90
5196;DHT22;2617;51.006;12.436;2023-05-07T17:24:20;12.60;99.90
5196;DHT22;2617;51.006;12.436;2023-05-07T17:29:23;12.50;99.90
5196;DHT22;2617;51.006;12.436;2023-05-07T17:34:26;12.20;99.90
5196;DHT22;2617;51.006;12.436;2023-05-07T17:39:28;12.20;99.90
5196;DHT22;2617;51.006;12.436;2023-05-07T17:44:31;12.10;99.90
5196;DHT22;2617;51.006;12.436;2023-05-07T17:49:33;12.00;99.90
5196;DHT22;2617;51.006;12.436;2023-05-07T17:54:35;12.00;99.90
5196;DHT22;2617;51.006;12.436;2023-05-07T17:59:38;11.90;99.90
5196;DHT22;2617;51.006;12.436;2023-05-07T18:04:40;11.90;99.90
5196;DHT22;2617;51.006;12.436;2023-05-07T18:09:43;11.60;99.90
5196;DHT22;2617;51.006;12.436;2023-05-07T18:14:46;11.20;99.90
5196;DHT22;2617;51.006;12.436;2023-05-07T18:19:49;11.20;99.90
5196;DHT22;2617;51.006;12.436;2023-05-07T18:24:51;11.00;99.90
5196;DHT22;2617;51.006;12.436;2023-05-07T18:29:53;10.80;99.90
5196;DHT22;2617;51.006;12.436;2023-05-07T18:34:56;10.50;99.90
5196;DHT22;2617;51.006;12.436;2023-05-07T18:39:59;10.50;99.90
5196;DHT22;2617;51.006;12.436;2023-05-07T18:45:01;10.30;99.90
5196;DHT22;2617;51.006;12.436;2023-05-07T18:50:04;10.20;99.90
5196;DHT22;2617;51.006;12.436;2023-05-07T18:55:07;10.10;99.90
5196;DHT22;2617;51.006;12.436;2023-05-07T19:00:10;10.00;99.90
5196;DHT22;2617;51.006;12.436;2023-05-07T19:05:14;9.70;99.90
5196;DHT22;2617;51.006;12.436;2023-05-07T19:10:17;9.70;99.90
5196;DHT22;2617;51.006;12.436;2023-05-07T19:15:19;9.70;99.90
5196;DHT22;2617;51.006;12.436;2023-05-07T19:20:22;9.50;99.90
5196;DHT22;2617;51.006;12.436;2023-05-07T19:25:24;9.50;99.90
5196;DHT22;2617;51.006;12.436;2023-05-07T19:30:26;9.40;99.90
5196;DHT22;2617;51.006;12.436;2023-05-07T19:35:29;9.30;99.90
5196;DHT22;2617;51.006;12.436;2023-05-07T19:40:31;9.20;99.90
5196;DHT22;2617;51.006;12.436;2023-05-07T19:45:34;9.10;99.90
5196;DHT22;2617;51.006;12.436;2023-05-07T19:50:37;8.90;99.90
5196;DHT22;2617;51.006;12.436;2023-05-07T19:55:39;8.90;99.90
5196;DHT22;2617;51.006;12.436;2023-05-07T20:00:42;8.80;99.90
5196;DHT22;2617;51.006;12.436;2023-05-07T20:05:45;8.80;99.90
5196;DHT22;2617;51.006;12.436;2023-05-07T20:10:48;8.60;99.90
5196;DHT22;2617;51.006;12.436;2023-05-07T20:15:50;8.60;99.90
5196;DHT22;2617;51.006;12.436;2023-05-07T20:20:52;8.50;99.90
5196;DHT22;2617;51.006;12.436;2023-05-07T20:25:56;8.50;99.90
5196;DHT22;2617;51.006;12.436;2023-05-07T20:30:57;8.40;99.90
5196;DHT22;2617;51.006;12.436;2023-05-07T20:35:59;8.30;99.90
5196;DHT22;2617;51.006;12.436;2023-05-07T20:41:06;8.20;99.90
5196;DHT22;2617;51.006;12.436;2023-05-07T20:46:10;8.10;99.90
5196;DHT22;2617;51.006;12.436;2023-05-07T20:51:12;8.10;99.90
5196;DHT22;2617;51.006;12.436;2023-05-07T20:56:15;8.00;99.90
5196;DHT22;2617;51.006;12.436;2023-05-07T21:01:18;7.90;99.90
5196;DHT22;2617;51.006;12.436;2023-05-07T21:06:21;7.80;99.90
5196;DHT22;2617;51.006;12.436;2023-05-07T21:11:23;7.80;99.90
5196;DHT22;2617;51.006;12.436;2023-05-07T21:16:26;7.70;99.90
5196;DHT22;2617;51.006;12.436;2023-05-07T21:21:29;7.60;99.90
5196;DHT22;2617;51.006;12.436;2023-05-07T21:26:31;7.60;99.90
5196;DHT22;2617;51.006;12.436;2023-05-07T21:31:34;7.60;99.90
5196;DHT22;2617;51.006;12.436;2023-05-07T21:36:36;7.50;99.90
5196;DHT22;2617;51.006;12.436;2023-05-07T21:41:40;7.50;99.90
5196;DHT22;2617;51.006;12.436;2023-05-07T21:46:42;7.40;99.90
5196;DHT22;2617;51.006;12.436;2023-05-07T21:51:44;7.40;99.90
5196;DHT22;2617;51.006;12.436;2023-05-07T21:56:47;7.30;99.90
5196;DHT22;2617;51.006;12.436;2023-05-07T22:01:49;7.30;99.90
5196;DHT22;2617;51.006;12.436;2023-05-07T22:06:52;7.30;99.90
5196;DHT22;2617;51.006;12.436;2023-05-07T22:11:54;7.30;99.90
5196;DHT22;2617;51.006;12.436;2023-05-07T22:16:56;7.20;99.90
5196;DHT22;2617;51.006;12.436;2023-05-07T22:21:59;7.20;99.90
5196;DHT22;2617;51.006;12.436;2023-05-07T22:27:02;7.20;99.90
5196;DHT22;2617;51.006;12.436;2023-05-07T22:32:04;7.20;99.90
5196;DHT22;2617;51.006;12.436;2023-05-07T22:37:07;7.10;99.90
5196;DHT22;2617;51.006;12.436;2023-05-07T22:42:09;7.10;99.90
5196;DHT22;2617;51.006;12.436;2023-05-07T22:47:13;7.00;99.90
5196;DHT22;2617;51.006;12.436;2023-05-07T22:52:15;7.00;99.90
5196;DHT22;2617;51.006;12.436;2023-05-07T22:57:17;7.00;99.90
5196;DHT22;2617;51.006;12.436;2023-05-07T23:02:20;7.00;99.90
5196;DHT22;2617;51.006;12.436;2023-05-07T23:07:22;6.90;99.90
5196;DHT22;2617;51.006;12.436;2023-05-07T23:12:25;6.80;99.90
5196;DHT22;2617;51.006;12.436;2023-05-07T23:17:27;6.70;99.90
5196;DHT22;2617;51.006;12.436;2023-05-07T23:22:30;6.70;99.90
5196;DHT22;2617;51.006;12.436;2023-05-07T23:27:32;6.70;99.90
5196;DHT22;2617;51.006;12.436;2023-05-07T23:32:34;6.60;99.90
5196;DHT22;2617;51.006;12.436;2023-05-07T23:37:37;6.70;99.90
5196;DHT22;2617;51.006;12.436;2023-05-07T23:42:39;6.70;99.90
5196;DHT22;2617;51.006;12.436;2023-05-07T23:47:43;6.70;99.90
5196;DHT22;2617;51.006;12.436;2023-05-07T23:52:45;6.70;99.90
5196;DHT22;2617;51.006;12.436;2023-05-07T23:57:48;6.60;99.90
